sensor_id;sensor_type;location;lat;lon;timestamp;temperature;humidity
44886;DHT22;36669;51.428;21.162;2023-12-20T00:00:27;6.00;99.90
44886;DHT22;36669;51.428;21.162;2023-12-20T00:02:54;6.00;99.90
44886;DHT22;36669;51.428;21.162;2023-12-20T00:05:21;6.00;99.90
44886;DHT22;36669;51.428;21.162;2023-12-20T00:07:48;6.00;99.90
44886;DHT22;36669;51.428;21.162;2023-12-20T00:10:15;6.00;99.90
44886;DHT22;36669;51.428;21.162;2023-12-20T00:12:43;5.90;99.90
44886;DHT22;36669;51.428;21.162;2023-12-20T00:15:10;5.90;99.90
44886;DHT22;36669;51.428;21.162;2023-12-20T00:17:37;5.80;99.90
44886;DHT22;36669;51.428;21.162;2023-12-20T00:20:02;5.70;99.90
44886;DHT22;36669;51.428;21.162;2023-12-20T00:22:29;5.70;99.90
44886;DHT22;36669;51.428;21.162;2023-12-20T00:24:56;5.70;99.90
44886;DHT22;36669;51.428;21.162;2023-12-20T00:27:21;5.60;99.90
44886;DHT22;36669;51.428;21.162;2023-12-20T00:29:50;5.70;99.90
44886;DHT22;36669;51.428;21.162;2023-12-20T00:32:16;5.70;99.90
44886;DHT22;36669;51.428;21.162;2023-12-20T00:34:43;5.60;99.90
44886;DHT22;36669;51.428;21.162;2023-12-20T00:37:10;5.70;99.90
44886;DHT22;36669;51.428;21.162;2023-12-20T00:39:37;5.60;99.90
44886;DHT22;36669;51.428;21.162;2023-12-20T00:42:06;5.70;99.90
44886;DHT22;36669;51.428;21.162;2023-12-20T00:44:33;5.70;99.90
44886;DHT22;36669;51.428;21.162;2023-12-20T00:47:01;5.70;99.90
44886;DHT22;36669;51.428;21.162;2023-12-20T00:49:27;5.70;99.90
44886;DHT22;36669;51.428;21.162;2023-12-20T00:51:53;5.70;99.90
44886;DHT22;36669;51.428;21.162;2023-12-20T00:54:19;5.70;99.90
44886;DHT22;36669;51.428;21.162;2023-12-20T00:56:46;5.70;99.90
44886;DHT22;36669;51.428;21.162;2023-12-20T00:59:15;5.70;99.90
44886;DHT22;36669;51.428;21.162;2023-12-20T01:01:41;5.60;99.90
44886;DHT22;36669;51.428;21.162;2023-12-20T01:04:09;5.60;99.90
44886;DHT22;36669;51.428;21.162;2023-12-20T01:06:36;5.60;99.90
44886;DHT22;36669;51.428;21.162;2023-12-20T01:09:05;5.60;99.90
44886;DHT22;36669;51.428;21.162;2023-12-20T01:11:32;5.70;99.90
44886;DHT22;36669;51.428;21.162;2023-12-20T01:13:59;5.60;99.90
44886;DHT22;36669;51.428;21.162;2023-12-20T01:16:26;5.50;99.90
44886;DHT22;36669;51.428;21.162;2023-12-20T01:18:51;5.50;99.90
44886;DHT22;36669;51.428;21.162;2023-12-20T01:21:18;5.60;99.90
44886;DHT22;36669;51.428;21.162;2023-12-20T01:23:46;5.60;99.90
44886;DHT22;36669;51.428;21.162;2023-12-20T01:26:14;5.60;99.90
44886;DHT22;36669;51.428;21.162;2023-12-20T01:28:51;5.60;99.90
44886;DHT22;36669;51.428;21.162;2023-12-20T01:31:18;5.50;99.90
44886;DHT22;36669;51.428;21.162;2023-12-20T01:33:45;5.50;99.90
44886;DHT22;36669;51.428;21.162;2023-12-20T01:36:11;5.50;99.90
44886;DHT22;36669;51.428;21.162;2023-12-20T01:38:38;5.50;99.90
44886;DHT22;36669;51.428;21.162;2023-12-20T01:41:06;5.60;99.90
44886;DHT22;36669;51.428;21.162;2023-12-20T01:43:35;5.50;99.90
44886;DHT22;36669;51.428;21.162;2023-12-20T01:46:02;5.50;99.90
44886;DHT22;36669;51.428;21.162;2023-12-20T01:48:29;5.60;99.90
44886;DHT22;36669;51.428;21.162;2023-12-20T01:51:00;5.50;99.90
44886;DHT22;36669;51.428;21.162;2023-12-20T01:53:30;5.50;99.90
44886;DHT22;36669;51.428;21.162;2023-12-20T01:56:08;5.50;99.90
44886;DHT22;36669;51.428;21.162;2023-12-20T01:58:38;5.60;99.90
44886;DHT22;36669;51.428;21.162;2023-12-20T02:01:05;5.60;99.90
44886;DHT22;36669;51.428;21.162;2023-12-20T02:03:32;5.60;99.90
44886;DHT22;36669;51.428;21.162;2023-12-20T02:06:01;5.50;99.90
44886;DHT22;36669;51.428;21.162;2023-12-20T02:08:28;5.60;99.90
44886;DHT22;36669;51.428;21.162;2023-12-20T02:10:56;5.50;99.90
44886;DHT22;36669;51.428;21.162;2023-12-20T02:13:21;5.50;99.90
44886;DHT22;36669;51.428;21.162;2023-12-20T02:15:48;5.60;99.90
44886;DHT22;36669;51.428;21.162;2023-12-20T02:18:15;5.60;99.90
44886;DHT22;36669;51.428;21.162;2023-12-20T02:20:44;5.60;99.90
44886;DHT22;36669;51.428;21.162;2023-12-20T02:23:11;5.60;99.90
44886;DHT22;36669;51.428;21.162;2023-12-20T02:25:37;5.60;99.90
44886;DHT22;36669;51.428;21.162;2023-12-20T02:28:08;5.60;99.90
44886;DHT22;36669;51.428;21.162;2023-12-20T02:30:36;5.60;99.90
44886;DHT22;36669;51.428;21.162;2023-12-20T02:33:04;5.70;99.90
44886;DHT22;36669;51.428;21.162;2023-12-20T02:35:33;5.60;99.90
44886;DHT22;36669;51.428;21.162;2023-12-20T02:38:00;5.60;99.90
44886;DHT22;36669;51.428;21.162;2023-12-20T02:40:27;5.70;99.90
44886;DHT22;36669;51.428;21.162;2023-12-20T02:42:53;5.60;99.90
44886;DHT22;36669;51.428;21.162;2023-12-20T02:45:18;5.60;99.90
44886;DHT22;36669;51.428;21.162;2023-12-20T02:47:46;5.60;99.90
44886;DHT22;36669;51.428;21.162;2023-12-20T02:50:13;5.70;99.90
44886;DHT22;36669;51.428;21.162;2023-12-20T02:52:44;5.70;99.90
44886;DHT22;36669;51.428;21.162;2023-12-20T02:55:10;5.70;99.90
44886;DHT22;36669;51.428;21.162;2023-12-20T02:57:37;5.60;99.90
44886;DHT22;36669;51.428;21.162;2023-12-20T03:00:10;5.60;99.90
44886;DHT22;36669;51.428;21.162;2023-12-20T03:02:38;5.70;99.90
44886;DHT22;36669;51.428;21.162;2023-12-20T03:05:05;5.70;99.90
44886;DHT22;36669;51.428;21.162;2023-12-20T03:07:36;5.70;99.90
44886;DHT22;36669;51.428;21.162;2023-12-20T03:10:05;5.70;99.90
44886;DHT22;36669;51.428;21.162;2023-12-20T03:12:33;5.70;99.90
44886;DHT22;36669;51.428;21.162;2023-12-20T03:15:00;5.70;99.90
44886;DHT22;36669;51.428;21.162;2023-12-20T03:17:26;5.70;99.90
44886;DHT22;36669;51.428;21.162;2023-12-20T03:19:51;5.70;99.90
44886;DHT22;36669;51.428;21.162;2023-12-20T03:22:18;5.70;99.90
44886;DHT22;36669;51.428;21.162;2023-12-20T03:24:45;5.70;99.90
44886;DHT22;36669;51.428;21.162;2023-12-20T03:27:12;5.80;99.90
44886;DHT22;36669;51.428;21.162;2023-12-20T03:29:40;5.80;99.90
44886;DHT22;36669;51.428;21.162;2023-12-20T03:32:07;5.80;99.90
44886;DHT22;36669;51.428;21.162;2023-12-20T03:34:34;5.80;99.90
44886;DHT22;36669;51.428;21.162;2023-12-20T03:37:01;5.70;99.90
44886;DHT22;36669;51.428;21.162;2023-12-20T03:39:28;5.80;99.90
44886;DHT22;36669;51.428;21.162;2023-12-20T03:41:56;5.80;99.90
44886;DHT22;36669;51.428;21.162;2023-12-20T03:44:23;5.80;99.90
44886;DHT22;36669;51.428;21.162;2023-12-20T03:46:53;5.70;99.90
44886;DHT22;36669;51.428;21.162;2023-12-20T03:49:22;5.80;99.90
44886;DHT22;36669;51.428;21.162;2023-12-20T03:51:49;5.80;99.90
44886;DHT22;36669;51.428;21.162;2023-12-20T03:54:16;5.70;99.90
44886;DHT22;36669;51.428;21.162;2023-12-20T03:56:41;5.80;99.90
44886;DHT22;36669;51.428;21.162;2023-12-20T03:59:08;5.70;99.90
44886;DHT22;36669;51.428;21.162;2023-12-20T04:01:35;5.70;99.90
44886;DHT22;36669;51.428;21.162;2023-12-20T04:04:02;5.70;99.90
44886;DHT22;36669;51.428;21.162;2023-12-20T04:06:29;5.70;99.90
44886;DHT22;36669;51.428;21.162;2023-12-20T04:08:56;5.70;99.90
44886;DHT22;36669;51.428;21.162;2023-12-20T04:11:23;5.70;99.90
44886;DHT22;36669;51.428;21.162;2023-12-20T04:13:49;5.70;99.90
44886;DHT22;36669;51.428;21.162;2023-12-20T04:16:18;5.70;99.90
44886;DHT22;36669;51.428;21.162;2023-12-20T04:18:45;5.70;99.90
44886;DHT22;36669;51.428;21.162;2023-12-20T04:21:13;5.70;99.90
44886;DHT22;36669;51.428;21.162;2023-12-20T04:23:39;5.70;99.90
44886;DHT22;36669;51.428;21.162;2023-12-20T04:26:05;5.70;99.90
44886;DHT22;36669;51.428;21.162;2023-12-20T04:28:32;5.70;99.90
44886;DHT22;36669;51.428;21.162;2023-12-20T04:30:59;5.70;99.90
44886;DHT22;36669;51.428;21.162;2023-12-20T04:33:27;5.70;99.90
44886;DHT22;36669;51.428;21.162;2023-12-20T04:35:54;5.70;99.90
44886;DHT22;36669;51.428;21.162;2023-12-20T04:38:22;5.70;99.90
44886;DHT22;36669;51.428;21.162;2023-12-20T04:40:50;5.70;99.90
44886;DHT22;36669;51.428;21.162;2023-12-20T04:43:17;5.70;99.90
44886;DHT22;36669;51.428;21.162;2023-12-20T04:45:45;5.70;99.90
44886;DHT22;36669;51.428;21.162;2023-12-20T04:48:13;5.60;99.90
44886;DHT22;36669;51.428;21.162;2023-12-20T04:50:40;5.70;99.90
44886;DHT22;36669;51.428;21.162;2023-12-20T04:53:07;5.60;99.90
44886;DHT22;36669;51.428;21.162;2023-12-20T04:55:34;5.60;99.90
44886;DHT22;36669;51.428;21.162;2023-12-20T04:58:01;5.60;99.90
44886;DHT22;36669;51.428;21.162;2023-12-20T05:00:28;5.60;99.90
44886;DHT22;36669;51.428;21.162;2023-12-20T05:02:55;5.60;99.90
44886;DHT22;36669;51.428;21.162;2023-12-20T05:05:23;5.60;99.90
44886;DHT22;36669;51.428;21.162;2023-12-20T05:07:50;5.60;99.90
44886;DHT22;36669;51.428;21.162;2023-12-20T05:10:17;5.60;99.90
44886;DHT22;36669;51.428;21.162;2023-12-20T05:12:43;5.60;99.90
44886;DHT22;36669;51.428;21.162;2023-12-20T05:15:11;5.60;99.90
44886;DHT22;36669;51.428;21.162;2023-12-20T05:17:39;5.60;99.90
44886;DHT22;36669;51.428;21.162;2023-12-20T05:20:11;5.60;99.90
44886;DHT22;36669;51.428;21.162;2023-12-20T05:22:38;5.60;99.90
44886;DHT22;36669;51.428;21.162;2023-12-20T05:25:05;5.60;99.90
44886;DHT22;36669;51.428;21.162;2023-12-20T05:27:33;5.60;99.90
44886;DHT22;36669;51.428;21.162;2023-12-20T05:30:00;5.60;99.90
44886;DHT22;36669;51.428;21.162;2023-12-20T05:32:26;5.60;99.90
44886;DHT22;36669;51.428;21.162;2023-12-20T05:34:53;5.60;99.90
44886;DHT22;36669;51.428;21.162;2023-12-20T05:37:20;5.60;99.90
44886;DHT22;36669;51.428;21.162;2023-12-20T05:39:47;5.60;99.90
44886;DHT22;36669;51.428;21.162;2023-12-20T05:42:13;5.60;99.90
44886;DHT22;36669;51.428;21.162;2023-12-20T05:44:39;5.50;99.90
44886;DHT22;36669;51.428;21.162;2023-12-20T05:47:10;5.60;99.90
44886;DHT22;36669;51.428;21.162;2023-12-20T05:49:37;5.60;99.90
44886;DHT22;36669;51.428;21.162;2023-12-20T05:52:04;5.60;99.90
44886;DHT22;36669;51.428;21.162;2023-12-20T05:54:32;5.60;99.90
44886;DHT22;36669;51.428;21.162;2023-12-20T05:57:00;5.50;99.90
44886;DHT22;36669;51.428;21.162;2023-12-20T05:59:29;5.50;99.90
44886;DHT22;36669;51.428;21.162;2023-12-20T06:01:55;5.50;99.90
44886;DHT22;36669;51.428;21.162;2023-12-20T06:04:22;5.60;99.90
44886;DHT22;36669;51.428;21.162;2023-12-20T06:06:49;5.50;99.90
44886;DHT22;36669;51.428;21.162;2023-12-20T06:09:17;5.50;99.90
44886;DHT22;36669;51.428;21.162;2023-12-20T06:11:45;5.50;99.90
44886;DHT22;36669;51.428;21.162;2023-12-20T06:14:12;5.50;99.90
44886;DHT22;36669;51.428;21.162;2023-12-20T06:16:45;5.50;99.90
44886;DHT22;36669;51.428;21.162;2023-12-20T06:19:11;5.50;99.90
44886;DHT22;36669;51.428;21.162;2023-12-20T06:21:38;5.50;99.90
44886;DHT22;36669;51.428;21.162;2023-12-20T06:24:04;5.50;99.90
44886;DHT22;36669;51.428;21.162;2023-12-20T06:26:34;5.50;99.90
44886;DHT22;36669;51.428;21.162;2023-12-20T06:29:02;5.50;99.90
44886;DHT22;36669;51.428;21.162;2023-12-20T06:31:30;5.50;99.90
44886;DHT22;36669;51.428;21.162;2023-12-20T06:34:00;5.50;99.90
44886;DHT22;36669;51.428;21.162;2023-12-20T06:36:28;5.50;99.90
44886;DHT22;36669;51.428;21.162;2023-12-20T06:38:55;5.50;99.90
44886;DHT22;36669;51.428;21.162;2023-12-20T06:41:22;5.50;99.90
44886;DHT22;36669;51.428;21.162;2023-12-20T06:43:53;5.50;99.90
44886;DHT22;36669;51.428;21.162;2023-12-20T06:46:20;5.50;99.90
44886;DHT22;36669;51.428;21.162;2023-12-20T06:48:47;5.50;99.90
44886;DHT22;36669;51.428;21.162;2023-12-20T06:51:15;5.40;99.90
44886;DHT22;36669;51.428;21.162;2023-12-20T06:53:43;5.50;99.90
44886;DHT22;36669;51.428;21.162;2023-12-20T06:56:11;5.40;99.90
44886;DHT22;36669;51.428;21.162;2023-12-20T06:58:43;5.40;99.90
44886;DHT22;36669;51.428;21.162;2023-12-20T07:01:13;5.40;99.90
44886;DHT22;36669;51.428;21.162;2023-12-20T07:03:42;5.40;99.90
44886;DHT22;36669;51.428;21.162;2023-12-20T07:06:09;5.40;99.90
44886;DHT22;36669;51.428;21.162;2023-12-20T07:08:37;5.40;99.90
44886;DHT22;36669;51.428;21.162;2023-12-20T07:11:04;5.40;99.90
44886;DHT22;36669;51.428;21.162;2023-12-20T07:13:30;5.40;99.90
44886;DHT22;36669;51.428;21.162;2023-12-20T07:15:57;5.30;99.90
44886;DHT22;36669;51.428;21.162;2023-12-20T07:18:25;5.40;99.90
44886;DHT22;36669;51.428;21.162;2023-12-20T07:20:51;5.40;99.90
44886;DHT22;36669;51.428;21.162;2023-12-20T07:23:19;5.40;99.90
44886;DHT22;36669;51.428;21.162;2023-12-20T07:25:47;5.40;99.90
44886;DHT22;36669;51.428;21.162;2023-12-20T07:28:12;5.40;99.90
44886;DHT22;36669;51.428;21.162;2023-12-20T07:30:39;5.40;99.90
44886;DHT22;36669;51.428;21.162;2023-12-20T07:33:07;5.40;99.90
44886;DHT22;36669;51.428;21.162;2023-12-20T07:35:36;5.40;99.90
44886;DHT22;36669;51.428;21.162;2023-12-20T07:38:03;5.40;99.90
44886;DHT22;36669;51.428;21.162;2023-12-20T07:40:32;5.40;99.90
44886;DHT22;36669;51.428;21.162;2023-12-20T07:42:59;5.40;99.90
44886;DHT22;36669;51.428;21.162;2023-12-20T07:45:28;5.40;99.90
44886;DHT22;36669;51.428;21.162;2023-12-20T07:47:55;5.40;99.90
44886;DHT22;36669;51.428;21.162;2023-12-20T07:50:22;5.40;99.90
44886;DHT22;36669;51.428;21.162;2023-12-20T07:52:49;5.50;99.90
44886;DHT22;36669;51.428;21.162;2023-12-20T07:55:17;5.50;99.90
44886;DHT22;36669;51.428;21.162;2023-12-20T07:57:44;5.40;99.90
44886;DHT22;36669;51.428;21.162;2023-12-20T08:00:11;5.40;99.90
44886;DHT22;36669;51.428;21.162;2023-12-20T08:02:37;5.40;99.90
44886;DHT22;36669;51.428;21.162;2023-12-20T08:05:06;5.30;99.90
44886;DHT22;36669;51.428;21.162;2023-12-20T08:07:33;5.30;99.90
44886;DHT22;36669;51.428;21.162;2023-12-20T08:10:00;5.30;99.90
44886;DHT22;36669;51.428;21.162;2023-12-20T08:12:27;5.30;99.90
44886;DHT22;36669;51.428;21.162;2023-12-20T08:14:54;5.30;99.90
44886;DHT22;36669;51.428;21.162;2023-12-20T08:17:21;5.20;99.90
44886;DHT22;36669;51.428;21.162;2023-12-20T08:19:53;5.20;99.90
44886;DHT22;36669;51.428;21.162;2023-12-20T08:22:20;5.20;99.90
44886;DHT22;36669;51.428;21.162;2023-12-20T08:24:49;5.20;99.90
44886;DHT22;36669;51.428;21.162;2023-12-20T08:27:17;5.10;99.90
44886;DHT22;36669;51.428;21.162;2023-12-20T08:29:44;5.20;99.90
44886;DHT22;36669;51.428;21.162;2023-12-20T08:32:12;5.10;99.90
44886;DHT22;36669;51.428;21.162;2023-12-20T08:34:39;5.10;99.90
44886;DHT22;36669;51.428;21.162;2023-12-20T08:37:07;5.10;99.90
44886;DHT22;36669;51.428;21.162;2023-12-20T08:39:35;5.10;99.90
44886;DHT22;36669;51.428;21.162;2023-12-20T08:42:03;5.10;99.90
44886;DHT22;36669;51.428;21.162;2023-12-20T08:44:32;5.10;99.90
44886;DHT22;36669;51.428;21.162;2023-12-20T08:46:59;5.10;99.90
44886;DHT22;36669;51.428;21.162;2023-12-20T08:49:26;5.20;99.90
44886;DHT22;36669;51.428;21.162;2023-12-20T08:51:56;5.20;99.90
44886;DHT22;36669;51.428;21.162;2023-12-20T08:54:22;5.10;99.90
44886;DHT22;36669;51.428;21.162;2023-12-20T08:56:50;5.10;99.90
44886;DHT22;36669;51.428;21.162;2023-12-20T08:59:17;5.10;99.90
44886;DHT22;36669;51.428;21.162;2023-12-20T09:01:46;5.00;99.90
44886;DHT22;36669;51.428;21.162;2023-12-20T09:04:16;5.00;99.90
44886;DHT22;36669;51.428;21.162;2023-12-20T09:06:43;5.10;99.90
44886;DHT22;36669;51.428;21.162;2023-12-20T09:09:14;5.00;99.90
44886;DHT22;36669;51.428;21.162;2023-12-20T09:11:41;5.00;99.90
44886;DHT22;36669;51.428;21.162;2023-12-20T09:14:09;5.00;99.90
44886;DHT22;36669;51.428;21.162;2023-12-20T09:16:37;5.00;99.90
44886;DHT22;36669;51.428;21.162;2023-12-20T09:19:03;5.00;99.90
44886;DHT22;36669;51.428;21.162;2023-12-20T09:21:30;5.10;99.90
44886;DHT22;36669;51.428;21.162;2023-12-20T09:24:00;5.00;99.90
44886;DHT22;36669;51.428;21.162;2023-12-20T09:26:27;5.00;99.90
44886;DHT22;36669;51.428;21.162;2023-12-20T09:28:54;5.00;99.90
44886;DHT22;36669;51.428;21.162;2023-12-20T09:31:21;5.00;99.90
44886;DHT22;36669;51.428;21.162;2023-12-20T09:33:49;5.00;99.90
44886;DHT22;36669;51.428;21.162;2023-12-20T09:36:16;4.90;99.90
44886;DHT22;36669;51.428;21.162;2023-12-20T09:38:43;5.00;99.90
44886;DHT22;36669;51.428;21.162;2023-12-20T09:41:13;5.00;99.90
44886;DHT22;36669;51.428;21.162;2023-12-20T09:43:41;5.00;99.90
44886;DHT22;36669;51.428;21.162;2023-12-20T09:46:21;5.00;99.90
44886;DHT22;36669;51.428;21.162;2023-12-20T09:48:51;5.00;99.90
44886;DHT22;36669;51.428;21.162;2023-12-20T09:51:20;5.00;99.90
44886;DHT22;36669;51.428;21.162;2023-12-20T09:53:49;5.00;99.90
44886;DHT22;36669;51.428;21.162;2023-12-20T09:56:17;5.00;99.90
44886;DHT22;36669;51.428;21.162;2023-12-20T09:58:44;5.00;99.90
44886;DHT22;36669;51.428;21.162;2023-12-20T10:01:11;5.00;99.90
44886;DHT22;36669;51.428;21.162;2023-12-20T10:03:40;5.00;99.90
44886;DHT22;36669;51.428;21.162;2023-12-20T10:06:08;5.00;99.90
44886;DHT22;36669;51.428;21.162;2023-12-20T10:08:35;5.00;99.90
44886;DHT22;36669;51.428;21.162;2023-12-20T10:11:02;4.90;99.90
44886;DHT22;36669;51.428;21.162;2023-12-20T10:13:32;5.00;99.90
44886;DHT22;36669;51.428;21.162;2023-12-20T10:15:59;4.90;99.90
44886;DHT22;36669;51.428;21.162;2023-12-20T10:18:29;4.90;99.90
44886;DHT22;36669;51.428;21.162;2023-12-20T10:21:00;4.90;99.90
44886;DHT22;36669;51.428;21.162;2023-12-20T10:23:26;4.90;99.90
44886;DHT22;36669;51.428;21.162;2023-12-20T10:25:59;4.90;99.90
44886;DHT22;36669;51.428;21.162;2023-12-20T10:28:25;4.90;99.90
44886;DHT22;36669;51.428;21.162;2023-12-20T10:30:54;4.90;99.90
44886;DHT22;36669;51.428;21.162;2023-12-20T10:33:28;4.90;99.90
44886;DHT22;36669;51.428;21.162;2023-12-20T10:35:55;4.90;99.90
44886;DHT22;36669;51.428;21.162;2023-12-20T10:38:21;4.90;99.90
44886;DHT22;36669;51.428;21.162;2023-12-20T10:40:47;4.80;99.90
44886;DHT22;36669;51.428;21.162;2023-12-20T10:43:17;4.80;99.90
44886;DHT22;36669;51.428;21.162;2023-12-20T10:45:46;4.80;99.90
44886;DHT22;36669;51.428;21.162;2023-12-20T10:48:15;4.90;99.90
44886;DHT22;36669;51.428;21.162;2023-12-20T10:50:43;4.80;99.90
44886;DHT22;36669;51.428;21.162;2023-12-20T10:53:09;4.90;99.90
44886;DHT22;36669;51.428;21.162;2023-12-20T10:55:37;4.90;99.90
44886;DHT22;36669;51.428;21.162;2023-12-20T10:58:17;4.80;99.90
44886;DHT22;36669;51.428;21.162;2023-12-20T11:00:46;4.80;99.90
44886;DHT22;36669;51.428;21.162;2023-12-20T11:03:17;4.90;99.90
44886;DHT22;36669;51.428;21.162;2023-12-20T11:06:15;4.90;99.90
44886;DHT22;36669;51.428;21.162;2023-12-20T11:14:52;4.90;99.90
44886;DHT22;36669;51.428;21.162;2023-12-20T11:17:36;4.90;99.90
44886;DHT22;36669;51.428;21.162;2023-12-20T11:20:07;4.90;99.90
44886;DHT22;36669;51.428;21.162;2023-12-20T11:22:38;4.90;99.90
44886;DHT22;36669;51.428;21.162;2023-12-20T11:25:12;4.80;99.90
44886;DHT22;36669;51.428;21.162;2023-12-20T11:27:43;4.90;99.90
44886;DHT22;36669;51.428;21.162;2023-12-20T11:30:13;4.80;99.90
44886;DHT22;36669;51.428;21.162;2023-12-20T11:32:50;4.80;99.90
44886;DHT22;36669;51.428;21.162;2023-12-20T11:35:19;4.80;99.90
44886;DHT22;36669;51.428;21.162;2023-12-20T11:37:48;4.80;99.90
44886;DHT22;36669;51.428;21.162;2023-12-20T11:40:16;4.80;99.90
44886;DHT22;36669;51.428;21.162;2023-12-20T11:42:52;4.70;99.90
44886;DHT22;36669;51.428;21.162;2023-12-20T11:45:23;4.80;99.90
44886;DHT22;36669;51.428;21.162;2023-12-20T11:47:51;4.80;99.90
44886;DHT22;36669;51.428;21.162;2023-12-20T11:50:20;4.80;99.90
44886;DHT22;36669;51.428;21.162;2023-12-20T11:52:48;4.70;99.90
44886;DHT22;36669;51.428;21.162;2023-12-20T11:55:17;4.70;99.90
44886;DHT22;36669;51.428;21.162;2023-12-20T11:57:44;4.70;99.90
44886;DHT22;36669;51.428;21.162;2023-12-20T12:00:15;4.70;99.90
44886;DHT22;36669;51.428;21.162;2023-12-20T12:02:54;4.70;99.90
44886;DHT22;36669;51.428;21.162;2023-12-20T12:05:22;4.70;99.90
44886;DHT22;36669;51.428;21.162;2023-12-20T12:07:49;4.60;99.90
44886;DHT22;36669;51.428;21.162;2023-12-20T12:10:15;4.70;99.90
44886;DHT22;36669;51.428;21.162;2023-12-20T12:12:41;4.70;99.90
44886;DHT22;36669;51.428;21.162;2023-12-20T12:15:10;4.60;99.90
44886;DHT22;36669;51.428;21.162;2023-12-20T12:17:37;4.60;99.90
44886;DHT22;36669;51.428;21.162;2023-12-20T12:20:06;4.60;99.90
44886;DHT22;36669;51.428;21.162;2023-12-20T12:22:38;4.60;99.90
44886;DHT22;36669;51.428;21.162;2023-12-20T12:25:13;4.60;99.90
44886;DHT22;36669;51.428;21.162;2023-12-20T12:27:40;4.60;99.90
44886;DHT22;36669;51.428;21.162;2023-12-20T12:30:10;4.60;99.90
44886;DHT22;36669;51.428;21.162;2023-12-20T12:32:47;4.60;99.90
44886;DHT22;36669;51.428;21.162;2023-12-20T12:35:14;4.60;99.90
44886;DHT22;36669;51.428;21.162;2023-12-20T12:37:46;4.60;99.90
44886;DHT22;36669;51.428;21.162;2023-12-20T12:40:15;4.60;99.90
44886;DHT22;36669;51.428;21.162;2023-12-20T12:42:45;4.60;99.90
44886;DHT22;36669;51.428;21.162;2023-12-20T12:45:12;4.60;99.90
44886;DHT22;36669;51.428;21.162;2023-12-20T12:47:41;4.70;99.90
44886;DHT22;36669;51.428;21.162;2023-12-20T12:50:08;4.60;99.90
44886;DHT22;36669;51.428;21.162;2023-12-20T12:52:36;4.70;99.90
44886;DHT22;36669;51.428;21.162;2023-12-20T12:55:04;4.70;99.90
44886;DHT22;36669;51.428;21.162;2023-12-20T12:57:31;4.70;99.90
44886;DHT22;36669;51.428;21.162;2023-12-20T13:00:00;4.70;99.90
44886;DHT22;36669;51.428;21.162;2023-12-20T13:02:27;4.70;99.90
44886;DHT22;36669;51.428;21.162;2023-12-20T13:04:54;4.70;99.90
44886;DHT22;36669;51.428;21.162;2023-12-20T13:07:22;4.70;99.90
44886;DHT22;36669;51.428;21.162;2023-12-20T13:09:48;4.70;99.90
44886;DHT22;36669;51.428;21.162;2023-12-20T13:12:15;4.70;99.90
44886;DHT22;36669;51.428;21.162;2023-12-20T13:14:41;4.70;99.90
44886;DHT22;36669;51.428;21.162;2023-12-20T13:17:08;4.70;99.90
44886;DHT22;36669;51.428;21.162;2023-12-20T13:19:36;4.70;99.90
44886;DHT22;36669;51.428;21.162;2023-12-20T13:22:03;4.70;99.90
44886;DHT22;36669;51.428;21.162;2023-12-20T13:24:29;4.70;99.90
44886;DHT22;36669;51.428;21.162;2023-12-20T13:26:56;4.70;99.90
44886;DHT22;36669;51.428;21.162;2023-12-20T13:29:24;4.80;99.90
44886;DHT22;36669;51.428;21.162;2023-12-20T13:31:54;4.80;99.90
44886;DHT22;36669;51.428;21.162;2023-12-20T13:34:21;4.80;99.90
44886;DHT22;36669;51.428;21.162;2023-12-20T13:36:50;4.90;99.90
44886;DHT22;36669;51.428;21.162;2023-12-20T13:39:18;4.90;99.90
44886;DHT22;36669;51.428;21.162;2023-12-20T13:41:46;4.90;99.90
44886;DHT22;36669;51.428;21.162;2023-12-20T13:44:14;4.90;99.90
44886;DHT22;36669;51.428;21.162;2023-12-20T13:46:42;4.90;99.90
44886;DHT22;36669;51.428;21.162;2023-12-20T13:49:13;4.90;99.90
44886;DHT22;36669;51.428;21.162;2023-12-20T13:51:41;4.90;99.90
44886;DHT22;36669;51.428;21.162;2023-12-20T13:54:07;5.00;99.90
44886;DHT22;36669;51.428;21.162;2023-12-20T13:56:34;4.90;99.90
44886;DHT22;36669;51.428;21.162;2023-12-20T13:59:02;4.90;99.90
44886;DHT22;36669;51.428;21.162;2023-12-20T14:01:30;4.90;99.90
44886;DHT22;36669;51.428;21.162;2023-12-20T14:03:57;4.90;99.90
44886;DHT22;36669;51.428;21.162;2023-12-20T14:06:25;5.00;99.90
44886;DHT22;36669;51.428;21.162;2023-12-20T14:08:50;5.00;99.90
44886;DHT22;36669;51.428;21.162;2023-12-20T14:11:16;5.00;99.90
44886;DHT22;36669;51.428;21.162;2023-12-20T14:13:46;5.00;99.90
44886;DHT22;36669;51.428;21.162;2023-12-20T14:16:13;5.00;99.90
44886;DHT22;36669;51.428;21.162;2023-12-20T14:18:41;4.90;99.90
44886;DHT22;36669;51.428;21.162;2023-12-20T14:21:08;4.90;99.90
44886;DHT22;36669;51.428;21.162;2023-12-20T14:23:35;4.80;99.90
44886;DHT22;36669;51.428;21.162;2023-12-20T14:26:01;4.80;99.90
44886;DHT22;36669;51.428;21.162;2023-12-20T14:28:29;4.80;99.90
44886;DHT22;36669;51.428;21.162;2023-12-20T14:30:55;4.80;99.90
44886;DHT22;36669;51.428;21.162;2023-12-20T14:33:24;4.70;99.90
44886;DHT22;36669;51.428;21.162;2023-12-20T14:35:51;4.70;99.90
44886;DHT22;36669;51.428;21.162;2023-12-20T14:38:17;4.70;99.90
44886;DHT22;36669;51.428;21.162;2023-12-20T14:40:46;4.70;99.90
44886;DHT22;36669;51.428;21.162;2023-12-20T14:43:13;4.70;99.90
44886;DHT22;36669;51.428;21.162;2023-12-20T14:45:41;4.80;99.90
44886;DHT22;36669;51.428;21.162;2023-12-20T14:48:18;4.80;99.90
44886;DHT22;36669;51.428;21.162;2023-12-20T14:50:45;4.70;99.90
44886;DHT22;36669;51.428;21.162;2023-12-20T14:53:15;4.70;99.90
44886;DHT22;36669;51.428;21.162;2023-12-20T14:55:44;4.80;99.90
44886;DHT22;36669;51.428;21.162;2023-12-20T14:58:11;4.80;99.90
44886;DHT22;36669;51.428;21.162;2023-12-20T15:00:38;4.80;99.90
44886;DHT22;36669;51.428;21.162;2023-12-20T15:03:05;4.80;99.90
44886;DHT22;36669;51.428;21.162;2023-12-20T15:05:35;4.70;99.90
44886;DHT22;36669;51.428;21.162;2023-12-20T15:08:04;4.90;99.90
44886;DHT22;36669;51.428;21.162;2023-12-20T15:10:31;4.80;99.90
44886;DHT22;36669;51.428;21.162;2023-12-20T15:12:59;4.80;99.90
44886;DHT22;36669;51.428;21.162;2023-12-20T15:15:26;4.80;99.90
44886;DHT22;36669;51.428;21.162;2023-12-20T15:18:04;4.90;99.90
44886;DHT22;36669;51.428;21.162;2023-12-20T15:20:31;5.00;99.90
44886;DHT22;36669;51.428;21.162;2023-12-20T15:23:00;4.90;99.90
44886;DHT22;36669;51.428;21.162;2023-12-20T15:25:36;5.00;99.90
44886;DHT22;36669;51.428;21.162;2023-12-20T15:28:04;5.00;99.90
44886;DHT22;36669;51.428;21.162;2023-12-20T15:30:32;5.00;99.90
44886;DHT22;36669;51.428;21.162;2023-12-20T15:32:59;5.00;99.90
44886;DHT22;36669;51.428;21.162;2023-12-20T15:35:27;5.00;99.90
44886;DHT22;36669;51.428;21.162;2023-12-20T15:37:53;5.00;99.90
44886;DHT22;36669;51.428;21.162;2023-12-20T15:40:21;4.90;99.90